Tiempo atmosférico en la estación meteorológica de Fonfría, Teruel (1262 m.)



Fecha
DESCASC
Temp. máxima en grados centígrados (hora)
DESCASC
Temp. mínima en grados centígrados (hora)
DESCASC
Temp. media en grados centígrados
DESCASC
Racha de viento máxima en m/sg (hora)
DESCASC
Velocidad máxima media en intervalos de 10 minutos(hora)
DESCASC
Precipitaciones diarias en mm
DESCASC
Precipitaciones de 00:00 a 06:00 en mm
DESCASC
Precipitaciones de 06:00 a 12:00 en mm
DESCASC
Precipitaciones de 12:00 a 18:00 en mm
DESCASC
Precipitaciones de 18:00 a 24:00 en mm
DESCASC
15-08-2019 25.2 (13:30) 12.3 (06:50) 18.8 8.61 (16:00) 5.28 (20:40) 0 0 0 0 0
14-08-2019 27 (18:10) 10.7 (00:00) 18.8 8.61 (16:50) 4.72 (06:20) 0 0 0 0 0
13-08-2019 22.3 (16:40) 8.8 (00:00) 15.5 7.78 (00:10) 4.72 (18:40) 0 0 0 0 0
12-08-2019 19.6 (16:00) 8.8 (00:00) 14.2 12.22 (20:00) 8.61 (20:00) 0 0 0 0 0
11-08-2019 25.8 (15:10) 13.6 (00:00) 19.7 10.28 (12:30) 7.5 (09:10) 0 0 0 0 0
10-08-2019 29.7 (15:00) 14.8 (00:00) 22.3 9.72 (17:40) 5.83 (00:10) 0 0 0 0 0
09-08-2019 31.1 (16:10) 17.7 (00:00) 24.4 15.83 (11:30) 8.89 (22:30) 0 0 0 0 0
08-08-2019 31.5 (17:30) 14.4 (00:00) 22.9 10.83 (18:40) 5.28 (05:00) 0 0 0 0 0
07-08-2019 26.6 (15:30) 17.9 (00:00) 22.3 9.17 (15:00) 4.44 (17:00) 0 0 0 0 0
06-08-2019 32.4 (17:20) 17.3 (00:00) 24.9 10 (13:20) 6.94 (04:10) 0 0 0 0 0
05-08-2019 30 (12:20) 17.8 (00:00) 23.9 9.72 (16:40) 6.39 (05:10) 0 0 0 0 0
04-08-2019 32.8 (15:40) 17.3 (00:00) 25 9.17 (02:30) 7.78 (02:30) 0 0 0 0 0
03-08-2019 29.8 (12:50) 16.2 (00:00) 23 9.17 (16:20) 5.56 (23:59) 0 0 0 0 0
02-08-2019 27 (16:00) 13.6 (00:00) 20.3 9.17 (18:40) 5.28 (18:40) 0 0 0 0 0
01-08-2019 27.3 (16:00) 14 (00:00) 20.6 12.22 (08:40) 9.17 (08:00) 0 0 0 0 0
31-07-2019 25 (16:30) 9.2 (00:00) 17.1 8.89 (15:10) 5.56 (17:30) 0 0 0 0 0
30-07-2019 22.4 (16:40) 9.8 (00:00) 16.1 8.33 (16:50) 5.28 (19:10) 0 0 0 0 0
29-07-2019 28.9 (15:50) 12.8 (00:00) 20.8 8.61 (23:10) 6.94 (07:10) 0 0 0 0 0
28-07-2019 23.7 (19:40) 8.5 (00:00) 16.1 10.28 (01:20) 7.22 (01:20) 0 0 0 0 0
27-07-2019 21.8 (16:00) 10.7 (00:00) 16.2 11.11 (23:30) 7.22 (23:40) 0 0 0 0 0
26-07-2019 25.1 (15:20) 14.5 (00:00) 19.8 19.72 (17:50) 9.44 (17:50) 8 0 0 8 0
25-07-2019 32.1 (14:10) 17 (00:00) 24.5 16.39 (14:40) 9.44 (14:40) 6.4 0 0 5.2 1.2
24-07-2019 33.2 (16:40) 17.6 (00:00) 25.4 10.28 (15:40) 6.39 (02:10) 0 0 0 0 0
23-07-2019 33.1 (15:40) 20.8 (00:00) 26.9 10.28 (14:20) 6.67 (05:40) 0 0 0 0 0
22-07-2019 31.6 (17:10) 17.8 (00:00) 24.7 12.22 (13:40) 8.61 (00:30) 0 0 0 0 0
21-07-2019 30.2 (17:20) 17.3 (00:00) 23.8 12.22 (01:50) 8.06 (01:30) 0 0 0 0 0
20-07-2019 31.6 (14:30) 18.3 (07:20) 24.9 11.67 (08:10) 8.61 (08:10) 0 0 0 0 0
19-07-2019 27.6 (12:50) 14.2 (00:00) 20.9 7.5 (22:40) 4.72 (18:40) 0 0 0 0 0

Gráficas

Temp. máximas Temp. mínimas Temp. medias Precipitaciones Rachas de viento máximas Velocidades máximas media en intervalos de 10 minutos

Datos horarios

Fecha y hora oficial Temperatura (ºC) Velocidad del viento (km/h) Dirección del viento Racha (km/h) Dirección de racha Precipitación (mm) Presión (hPa) Tendencia (hPa) Humedad (%)
2019-08-17 23:00:00 21.6 13 Sudoeste 17 Sudoeste 0 -- -- 67
2019-08-17 22:00:00 23.3 8 Sur 14 Sur 0 -- -- 67
2019-08-17 21:00:00 25.6 10 Sur 21 Sudeste 0 -- -- 46
2019-08-17 20:00:00 27.9 12 Este 23 Oeste 0 -- -- 41
2019-08-17 19:00:00 31.8 13 Oeste 28 Noroeste 0 -- -- 20
2019-08-17 18:00:00 32.5 19 Noroeste 33 Oeste 0 -- -- 20
2019-08-17 17:00:00 32.6 12 Noroeste 32 Oeste 0 -- -- 21
2019-08-17 16:00:00 32.4 15 Noroeste 30 Noroeste 0 -- -- 21
2019-08-17 15:00:00 31.5 13 Sur 28 Sur 0 -- -- 28
2019-08-17 14:00:00 31.4 13 Oeste 33 Oeste 0 -- -- 28
2019-08-17 13:00:00 30.3 13 Oeste 35 Oeste 0 -- -- 31
2019-08-17 12:00:00 28.7 12 Oeste 24 Sudoeste 0 -- -- 36
2019-08-17 11:00:00 27.5 13 Oeste 23 Oeste 0 -- -- 40
2019-08-17 10:00:00 25.6 18 Oeste 27 Oeste 0 -- -- 43
2019-08-17 09:00:00 23.9 0 Calma 9 Oeste 0 -- -- 50
2019-08-17 08:00:00 19.9 2 Sudeste 16 Oeste 0 -- -- 53
2019-08-17 07:00:00 18.1 9 Oeste 13 Oeste 0 -- -- 54
2019-08-17 06:00:00 19.2 6 Sudoeste 18 Sudoeste 0 -- -- 52
2019-08-17 05:00:00 18.6 15 Sudoeste 28 Sudoeste 0 -- -- 65
2019-08-17 04:00:00 18.5 24 Sudoeste 28 Sudoeste 0 -- -- 72
2019-08-17 03:00:00 18.7 22 Sudoeste 27 Sudoeste 0 -- -- 76
2019-08-17 02:00:00 19.5 6 Sur 30 Sudoeste 0 -- -- 75
2019-08-17 01:00:00 19.9 25 Sudoeste 30 Sur 0 -- -- 72
2019-08-17 00:00:00 21.4 21 Sur 26 Sur 0 -- -- 61
2019-08-16 23:00:00 21.3 8 Sudeste 14 Sur 0 -- -- 55
2019-08-16 22:00:00 21.1 8 Sur 14 Sur 0 -- -- 53
2019-08-16 21:00:00 22.8 10 Sur 21 Sudeste 0 -- -- 48
2019-08-16 20:00:00 25.2 15 Sudeste 26 Este 0 -- -- 43
2019-08-16 19:00:00 26.5 14 Este 25 Este 0 -- -- 40
2019-08-16 18:00:00 27 14 Este 31 Nordeste 0 -- -- 40
2019-08-16 17:00:00 27.2 15 Nordeste 38 Nordeste 0 -- -- 39
2019-08-16 16:00:00 27.6 13 Nordeste 30 Norte 0 -- -- 39
2019-08-16 15:00:00 26.8 14 Nordeste 26 Nordeste 0 -- -- 40
2019-08-16 14:00:00 26.7 13 Nordeste 21 Nordeste 0 -- -- 41
2019-08-16 13:00:00 26.7 9 Nordeste 21 Nordeste 0 -- -- 44
2019-08-16 12:00:00 25.7 11 Norte 19 Norte 0 -- -- 49
2019-08-16 11:00:00 25 9 Sudoeste 21 Sudoeste 0 -- -- 50
2019-08-16 10:00:00 22.4 20 Sudoeste 26 Sudoeste 0 -- -- 60
2019-08-16 09:00:00 21.2 8 Sur 22 Sudoeste 0 -- -- 62
2019-08-16 08:00:00 17 3 Sudeste 12 Sudoeste 0 -- -- 61
2019-08-16 07:00:00 15.8 12 Sur 18 Sur 0 -- -- 62
2019-08-16 06:00:00 15.4 3 Sudeste 9 Sudeste 0 -- -- 69
2019-08-16 05:00:00 15.5 5 Sudeste 8 Este 0 -- -- 63
2019-08-16 04:00:00 15.4 2 Sudeste 8 Sur 0 -- -- 65
2019-08-16 03:00:00 15.6 0 Calma 5 Oeste 0 -- -- 59
2019-08-16 02:00:00 16 3 Oeste 6 Noroeste 0 -- -- 56
2019-08-16 01:00:00 15.8 4 Noroeste 14 Noroeste 0 -- -- 63
2019-08-16 00:00:00 15.5 8 Noroeste 13 Noroeste 0 -- -- 69
2019-08-15 23:00:00 15.6 3 Noroeste 22 Nordeste 0 -- -- 67
2019-08-15 22:00:00 17 7 Nordeste 22 Nordeste 0 -- -- 61
2019-08-15 21:00:00 18.8 15 Nordeste 27 Nordeste 0 -- -- 58
2019-08-15 20:00:00 21.2 18 Nordeste 27 Nordeste 0 -- -- 53
2019-08-15 19:00:00 23.7 14 Nordeste 26 Nordeste 0 -- -- 49
2019-08-15 18:00:00 24.9 11 Nordeste 24 Nordeste 0 -- -- 50
2019-08-15 17:00:00 24.3 12 Nordeste 29 Nordeste 0 -- -- 52
2019-08-15 16:00:00 24.3 18 Nordeste 31 Nordeste 0 -- -- 51
2019-08-15 15:00:00 24.7 12 Nordeste 25 Nordeste 0 -- -- 52
2019-08-15 14:00:00 23.5 14 Nordeste 23 Nordeste 0 -- -- 55
2019-08-15 13:00:00 24 8 Este 18 Este 0 -- -- 54
2019-08-15 12:00:00 22.5 7 Este 14 Este 0 -- -- 59
2019-08-15 11:00:00 20.2 5 Nordeste 13 Nordeste 0 -- -- 67
2019-08-15 10:00:00 17.2 8 Norte 15 Norte 0 -- -- 79
2019-08-15 09:00:00 15.6 10 Noroeste 17 Noroeste 0 -- -- 87
2019-08-15 08:00:00 14.6 7 Noroeste 12 Noroeste 0 -- -- 88
2019-08-15 07:00:00 12.3 5 Oeste 7 Noroeste 0 -- -- 91
2019-08-15 06:00:00 13 4 Oeste 12 Noroeste 0 -- -- 89
2019-08-15 05:00:00 13.6 5 Noroeste 10 Noroeste 0 -- -- 85
2019-08-15 04:00:00 14.5 3 Noroeste 8 Noroeste 0 -- -- 80
2019-08-15 03:00:00 14.8 6 Noroeste 12 Noroeste 0 -- -- 76
2019-08-15 02:00:00 15 7 Oeste 13 Noroeste 0 -- -- 72
2019-08-15 01:00:00 16.7 4 Noroeste 14 Oeste 0 -- -- 65
2019-08-15 00:00:00 17.3 5 Noroeste 15 Noroeste 0 -- -- 58
2019-08-14 23:00:00 19 5 Noroeste 12 Norte 0 -- -- 45
2019-08-14 22:00:00 19.3 3 Sur 9 Este 0 -- -- 42
2019-08-14 21:00:00 21.8 3 Nordeste 17 Este 0 -- -- 36
2019-08-14 20:00:00 24.6 7 Nordeste 24 Noroeste 0 -- -- 30
2019-08-14 19:00:00 26.2 10 Noroeste 23 Noroeste 0 -- -- 28
2019-08-14 18:00:00 26.5 6 Norte 22 Noroeste 0 -- -- 28
2019-08-14 17:00:00 25.9 11 Noroeste 31 Noroeste 0 -- -- 28
2019-08-14 16:00:00 25.9 13 Noroeste 25 Noroeste 0 -- -- 28
2019-08-14 15:00:00 25.7 12 Noroeste 24 Noroeste 0 -- -- 28
2019-08-14 14:00:00 24.5 8 Norte 18 Noroeste 0 -- -- 28
2019-08-14 13:00:00 23.2 11 Norte 22 Norte 0 -- -- 28
2019-08-14 12:00:00 22.6 12 Norte 21 Norte 0 -- -- 35
2019-08-14 11:00:00 22.1 9 Noroeste 15 Norte 0 -- -- 39
2019-08-14 10:00:00 20.4 5 Norte 15 Sudoeste 0 -- -- 44
2019-08-14 09:00:00 16.2 4 Sudoeste 10 Oeste 0 -- -- 55
2019-08-14 08:00:00 13 0 Calma 11 Sudoeste 0 -- -- 64
2019-08-14 07:00:00 11.6 10 Sudoeste 20 Sudoeste 0 -- -- 64
2019-08-14 06:00:00 11.8 3 Oeste 11 Sudoeste 0 -- -- 61
2019-08-14 05:00:00 12.1 5 Oeste 10 Oeste 0 -- -- 60
2019-08-14 04:00:00 10.9 9 Sudoeste 13 Sudoeste 0 -- -- 66
2019-08-14 03:00:00 11.6 0 Calma 6 Oeste 0 -- -- 62
2019-08-14 02:00:00 12.3 3 Oeste 5 Oeste 0 -- -- 61
2019-08-14 01:00:00 11.2 3 Sur 10 Sudoeste 0 -- -- 70
2019-08-14 00:00:00 11.5 5 Oeste 17 Noroeste 0 -- -- 70
2019-08-13 23:00:00 12.9 9 Noroeste 18 Noroeste 0 -- -- 64
2019-08-13 22:00:00 13.5 3 Noroeste 10 Nordeste 0 -- -- 61
2019-08-13 21:00:00 16 3 Nordeste 16 Nordeste 0 -- -- 52
2019-08-13 20:00:00 18.5 10 Norte 21 Norte 0 -- -- 43
2019-08-13 19:00:00 19.9 15 Norte 25 Norte 0 -- -- 41
2019-08-13 18:00:00 22.1 12 Norte 23 Noroeste 0 -- -- 38
2019-08-13 17:00:00 21.9 15 Noroeste 25 Noroeste 0 -- -- 38
2019-08-13 16:00:00 22.1 14 Noroeste 25 Noroeste 0 -- -- 38
2019-08-13 15:00:00 21.2 16 Noroeste 26 Noroeste 0 -- -- 42
2019-08-13 14:00:00 19 9 Noroeste 16 Norte 0 -- -- 53
2019-08-13 13:00:00 19.1 8 Este 13 Este 0 -- -- 49
2019-08-13 12:00:00 17 4 Este 10 Norte 0 -- -- 52
2019-08-13 11:00:00 16.3 6 Norte 12 Nordeste 0 -- -- 53
2019-08-13 10:00:00 14.2 3 Norte 9 Norte 0 -- -- 57
2019-08-13 09:00:00 12.3 4 Norte 11 Noroeste 0 -- -- 64
2019-08-13 08:00:00 10 6 Noroeste 12 Noroeste 0 -- -- 71
2019-08-13 07:00:00 9.3 5 Noroeste 14 Noroeste 0 -- -- 77
2019-08-13 06:00:00 9.1 9 Noroeste 23 Noroeste 0 -- -- 77
2019-08-13 05:00:00 9 12 Noroeste 20 Noroeste 0 -- -- 81
2019-08-13 04:00:00 9.1 11 Norte 17 Noroeste 0 -- -- 81
2019-08-13 03:00:00 9 11 Noroeste 26 Noroeste 0 -- -- 77
2019-08-13 02:00:00 8.8 10 Norte 25 Noroeste 0 -- -- 79
2019-08-13 01:00:00 9.1 11 Noroeste 28 Noroeste 0 -- -- 80
2019-08-13 00:00:00 9.8 15 Norte 33 Norte 0 -- -- 80
2019-08-12 23:00:00 10.7 15 Norte 35 Norte 0 -- -- 76
2019-08-12 22:00:00 11.7 24 Norte 40 Norte 0 -- -- 71
2019-08-12 21:00:00 13.2 20 Norte 42 Norte 0 -- -- 64
2019-08-12 20:00:00 15.5 31 Norte 44 Norte 0 -- -- 53
2019-08-12 19:00:00 17.1 30 Norte 42 Norte 0 -- -- 48
2019-08-12 18:00:00 18.7 23 Norte 37 Nordeste 0 -- -- 45
2019-08-12 17:00:00 19.5 17 Norte 31 Norte 0 -- -- 44
2019-08-12 16:00:00 19.6 14 Norte 30 Norte 0 -- -- 44
2019-08-12 15:00:00 17.7 15 Norte 27 Norte 0 -- -- 49
2019-08-12 14:00:00 18.8 14 Nordeste 27 Norte 0 -- -- 49
2019-08-12 13:00:00 18.3 12 Norte 26 Norte 0 -- -- 52
2019-08-12 12:00:00 17.1 14 Norte 25 Norte 0 -- -- 57
2019-08-12 11:00:00 15.4 14 Norte 22 Norte 0 -- -- 65
2019-08-12 10:00:00 13.9 11 Norte 26 Norte 0 -- -- 71
2019-08-12 09:00:00 12 15 Norte 24 Noroeste 0 -- -- 80
2019-08-12 08:00:00 10.4 12 Noroeste 21 Noroeste 0 -- -- 89
2019-08-12 07:00:00 8.9 3 Nordeste 16 Noroeste 0 -- -- 94
2019-08-12 06:00:00 10.1 10 Noroeste 17 Noroeste 0 -- -- 90
2019-08-12 05:00:00 10.4 9 Noroeste 13 Noroeste 0 -- -- 90
2019-08-12 04:00:00 11.3 9 Noroeste 16 Noroeste 0 -- -- 86
2019-08-12 03:00:00 11.1 4 Noroeste 11 Noroeste 0 -- -- 86
2019-08-12 02:00:00 12.2 9 Noroeste 18 Noroeste 0 -- -- 82
2019-08-12 01:00:00 12.7 10 Noroeste 20 Noroeste 0 -- -- 78
2019-08-12 00:00:00 13.6 13 Noroeste 24 Noroeste 0 -- -- 76
2019-08-11 23:00:00 14.9 17 Noroeste 27 Noroeste 0 -- -- 73
2019-08-11 22:00:00 16.9 12 Norte 19 Norte 0 -- -- 64
2019-08-11 21:00:00 19 12 Nordeste 23 Nordeste 0 -- -- 57
2019-08-11 20:00:00 20.9 10 Nordeste 21 Nordeste 0 -- -- 53
2019-08-11 19:00:00 22.9 14 Nordeste 24 Norte 0 -- -- 49
2019-08-11 18:00:00 25.2 3 Este 20 Nordeste 0 -- -- 45
2019-08-11 17:00:00 25.1 7 Este 21 Este 0 -- -- 46
2019-08-11 16:00:00 24 13 Norte 31 Noroeste 0 -- -- 49
2019-08-11 15:00:00 25.2 9 Sudeste 22 Sudeste 0 -- -- 49
2019-08-11 14:00:00 24.3 10 Este 25 Este 0 -- -- 53
2019-08-11 13:00:00 23.7 10 Norte 37 Noroeste 0 -- -- 54
2019-08-11 12:00:00 22.6 8 Nordeste 18 Sudeste 0 -- -- 58
2019-08-11 11:00:00 23.3 9 Sudoeste 22 Oeste 0 -- -- 57
2019-08-11 10:00:00 19 4 Norte 37 Noroeste 0 -- -- 67
2019-08-11 09:00:00 20.3 13 Oeste 26 Noroeste 0 -- -- 69
2019-08-11 08:00:00 18.9 8 Oeste 17 Sudoeste 0 -- -- 74
2019-08-11 07:00:00 16.4 6 Sudoeste 13 Sur 0 -- -- 81
2019-08-11 06:00:00 16.9 10 Sudoeste 13 Sudoeste 0 -- -- 79
2019-08-11 05:00:00 18 6 Sudeste 21 Sur 0 -- -- 76
2019-08-11 04:00:00 18 8 Sudeste 15 Sudeste 0 -- -- 80
2019-08-11 03:00:00 17.7 7 Sudeste 13 Sur 0 -- -- 70
2019-08-11 02:00:00 17.9 8 Sur 11 Sudeste 0 -- -- 64
2019-08-11 01:00:00 18.4 7 Sudeste 14 Sudeste 0 -- -- 63
2019-08-11 00:00:00 19.3 6 Este 11 Sudeste 0 -- -- 60
2019-08-10 23:00:00 19.9 5 Sur 9 Sudeste 0 -- -- 58
2019-08-10 22:00:00 20.7 4 Sur 11 Este 0 -- -- 56
2019-08-10 21:00:00 22.7 6 Este 21 Este 0 -- -- 51
2019-08-10 20:00:00 24.1 13 Este 26 Sudeste 0 -- -- 48
2019-08-10 19:00:00 25.4 17 Este 29 Este 0 -- -- 45
2019-08-10 18:00:00 25.9 17 Este 35 Nordeste 0 -- -- 44
2019-08-10 17:00:00 26.2 16 Este 29 Nordeste 0 -- -- 44
2019-08-10 16:00:00 25.4 14 Este 30 Este 0 -- -- 48
2019-08-10 15:00:00 29.7 11 Oeste 31 Sudoeste 0 -- -- 38
2019-08-10 14:00:00 28 15 Sudoeste 30 Sudoeste 0 -- -- 42
2019-08-10 13:00:00 27 11 Oeste 25 Sudoeste 0 -- -- 46
2019-08-10 12:00:00 24.7 6 Noroeste 24 Oeste 0 -- -- 53
2019-08-10 11:00:00 23.4 9 Oeste 21 Oeste 0 -- -- 55
2019-08-10 10:00:00 19.5 4 Nordeste 17 Noroeste 0 -- -- 66
2019-08-10 09:00:00 17 14 Norte 24 Noroeste 0 -- -- 75
2019-08-10 08:00:00 16 15 Noroeste 27 Noroeste 0 -- -- 76
2019-08-10 07:00:00 14.9 14 Noroeste 26 Noroeste 0 -- -- 75
2019-08-10 06:00:00 15.1 15 Noroeste 26 Noroeste 0 -- -- 78
2019-08-10 05:00:00 15.4 9 Noroeste 23 Noroeste 0 -- -- 84
2019-08-10 04:00:00 17.8 10 Oeste 21 Oeste 0 -- -- 77
2019-08-10 03:00:00 16.5 13 Sudoeste 23 Sudoeste 0 -- -- 79
2019-08-10 02:00:00 16.1 17 Sudoeste 27 Oeste 0 -- -- 74
2019-08-10 01:00:00 18.6 16 Oeste 32 Noroeste 0 -- -- 70
2019-08-10 00:00:00 17.7 20 Noroeste 40 Noroeste 0 -- -- 68
2019-08-09 23:00:00 19.5 24 Noroeste 48 Noroeste 0 -- -- 74
2019-08-09 22:00:00 24.2 14 Noroeste 28 Oeste 0 -- -- 49
2019-08-09 21:00:00 25.8 12 Oeste 31 Sudoeste 0 -- -- 42
2019-08-09 20:00:00 27.7 15 Oeste 41 Oeste 0 -- -- 38
2019-08-09 19:00:00 30 15 Oeste 36 Oeste 0 -- -- 33
2019-08-09 18:00:00 30.6 18 Oeste 41 Oeste 0 -- -- 32
2019-08-09 17:00:00 30.5 16 Oeste 45 Oeste 0 -- -- 34
2019-08-09 16:00:00 30.8 20 Oeste 39 Sudoeste 0 -- -- 32
2019-08-09 15:00:00 30.4 21 Oeste 41 Oeste 0 -- -- 34
2019-08-09 14:00:00 30.2 19 Oeste 50 Sudoeste 0 -- -- 32
2019-08-09 13:00:00 29.1 21 Oeste 51 Oeste 0 -- -- 33
2019-08-09 12:00:00 27.8 28 Oeste 57 Oeste 0 -- -- 36
2019-08-09 11:00:00 26 17 Oeste 42 Sudoeste 0 -- -- 45
2019-08-09 10:00:00 24.1 19 Oeste 35 Oeste 0 -- -- 51
2019-08-09 09:00:00 23.2 8 Oeste 30 Oeste 0 -- -- 49
2019-08-09 08:00:00 21.2 12 Oeste 24 Oeste 0 -- -- 53
2019-08-09 07:00:00 18.6 14 Sudoeste 17 Oeste 0 -- -- 59
2019-08-09 06:00:00 19.5 10 Oeste 22 Sudoeste 0 -- -- 57
2019-08-09 05:00:00 19.9 12 Oeste 20 Oeste 0 -- -- 55
2019-08-09 04:00:00 19.5 9 Oeste 15 Oeste 0 -- -- 57
2019-08-09 03:00:00 20.2 9 Oeste 15 Noroeste 0 -- -- 53
2019-08-09 02:00:00 21.3 6 Oeste 16 Sudoeste 0 -- -- 49
2019-08-09 01:00:00 20.5 8 Sudoeste 13 Sudoeste 0 -- -- 52
2019-08-09 00:00:00 20.7 6 Sudoeste 9 Sudoeste 0 -- -- 51
2019-08-08 23:00:00 22.2 3 Sur 13 Oeste 0 -- -- 47
2019-08-08 22:00:00 23.7 6 Oeste 18 Noroeste 0 -- -- 45
2019-08-08 21:00:00 25.5 8 Oeste 26 Oeste 0 -- -- 42
2019-08-08 20:00:00 28 17 Noroeste 30 Noroeste 0 -- -- 37
2019-08-08 19:00:00 30.4 14 Oeste 39 Noroeste 0 -- -- 34
2019-08-08 18:00:00 29.9 13 Noroeste 32 Oeste 0 -- -- 35
2019-08-08 17:00:00 30.9 12 Noroeste 36 Oeste 0 -- -- 34
2019-08-08 16:00:00 30.6 13 Noroeste 32 Oeste 0 -- -- 36
2019-08-08 15:00:00 29.5 8 Sudoeste 28 Sudoeste 0 -- -- 36
2019-08-08 14:00:00 28.5 13 Sudoeste 31 Sudoeste 0 -- -- 37
2019-08-08 13:00:00 27.3 12 Oeste 27 Sudoeste 0 -- -- 39
2019-08-08 12:00:00 25 13 Sudoeste 31 Sudoeste 0 -- -- 42
2019-08-08 11:00:00 23.5 13 Oeste 24 Sudoeste 0 -- -- 48
2019-08-08 10:00:00 21.6 10 Noroeste 26 Oeste 0 -- -- 53
2019-08-08 09:00:00 19.7 11 Oeste 29 Oeste 0 -- -- 61
2019-08-08 08:00:00 17.5 15 Oeste 25 Oeste 0 -- -- 67
2019-08-08 07:00:00 14.7 13 Sudoeste 20 Oeste 0 -- -- 75
2019-08-08 06:00:00 16.2 16 Oeste 29 Oeste 0 -- -- 69
2019-08-08 05:00:00 17.1 19 Oeste 34 Oeste 0 -- -- 66
2019-08-08 04:00:00 17.4 15 Oeste 25 Oeste 0 -- -- 62
2019-08-08 03:00:00 18 13 Oeste 24 Oeste 0 -- -- 61
2019-08-08 02:00:00 18 10 Oeste 18 Oeste 0 -- -- 58
2019-08-08 01:00:00 17.8 6 Oeste 10 Oeste 0 -- -- 58
2019-08-08 00:00:00 18.8 7 Sudoeste 12 Noroeste 0 -- -- 56
2019-08-07 23:00:00 20.7 6 Noroeste 17 Noroeste 0 -- -- 50
2019-08-07 22:00:00 20.7 9 Oeste 15 Oeste 0 -- -- 46
2019-08-07 21:00:00 21.6 7 Sudoeste 12 Noroeste 0 -- -- 46
2019-08-07 20:00:00 22.9 6 Noroeste 22 Noroeste 0 -- -- 42
2019-08-07 19:00:00 23.9 12 Noroeste 29 Noroeste 0 -- -- 41
2019-08-07 18:00:00 24.6 14 Noroeste 28 Oeste 0 -- -- 40
2019-08-07 17:00:00 25.5 16 Oeste 31 Noroeste 0 -- -- 38
2019-08-07 16:00:00 25.6 7 Oeste 27 Noroeste 0 -- -- 38
2019-08-07 15:00:00 25.9 14 Oeste 33 Oeste 0 -- -- 39
2019-08-07 14:00:00 24.2 9 Noroeste 20 Oeste 0 -- -- 42
2019-08-07 13:00:00 23.7 12 Noroeste 24 Noroeste 0 -- -- 42
2019-08-07 12:00:00 23.7 12 Noroeste 19 Norte 0 -- -- 44
2019-08-07 11:00:00 23.1 12 Norte 22 Norte 0 -- -- 48
2019-08-07 10:00:00 21.4 8 Norte 19 Oeste 0 -- -- 51
2019-08-07 09:00:00 21.8 14 Noroeste 23 Noroeste 0 -- -- 41
2019-08-07 08:00:00 20.4 13 Oeste 21 Oeste 0 -- -- 42
2019-08-07 07:00:00 20.3 14 Oeste 20 Oeste 0 -- -- 40
2019-08-07 06:00:00 19.4 12 Sudoeste 14 Sudoeste 0 -- -- 40
2019-08-07 05:00:00 19.2 12 Sudoeste 16 Sudoeste 0 -- -- 38
2019-08-07 04:00:00 18.5 7 Sudoeste 15 Sudoeste 0 -- -- 34
2019-08-07 03:00:00 18.9 14 Sudoeste 16 Sudoeste 0 -- -- 32
2019-08-07 02:00:00 19.7 14 Oeste 19 Oeste 0 -- -- 31
2019-08-07 01:00:00 21.2 12 Oeste 17 Oeste 0 -- -- 30
2019-08-07 00:00:00 20.1 12 Sudoeste 18 Sudoeste 0 -- -- 58
2019-08-06 23:00:00 21.6 10 Sudoeste 15 Sudoeste 0 -- -- 63
2019-08-06 22:00:00 22.7 3 Noroeste 18 Sudeste 0 -- -- 55
2019-08-06 21:00:00 24.6 9 Sur 24 Sudeste 0 -- -- 47
2019-08-06 20:00:00 27.1 16 Este 27 Este 0 -- -- 39
2019-08-06 19:00:00 28.6 8 Sudeste 24 Noroeste 0 -- -- 38
2019-08-06 18:00:00 31.4 8 Oeste 23 Oeste 0 -- -- 19
2019-08-06 17:00:00 32 13 Noroeste 26 Oeste 0 -- -- 21
2019-08-06 16:00:00 31.1 12 Noroeste 30 Oeste 0 -- -- 24
2019-08-06 15:00:00 31.8 16 Oeste 33 Noroeste 0 -- -- 23
2019-08-06 14:00:00 31.1 17 Sudoeste 36 Noroeste 0 -- -- 26
2019-08-06 13:00:00 29.5 16 Noroeste 34 Oeste 0 -- -- 29
2019-08-06 12:00:00 28.3 17 Noroeste 29 Oeste 0 -- -- 34
2019-08-06 11:00:00 27.6 12 Noroeste 25 Norte 0 -- -- 41
2019-08-06 10:00:00 26.3 9 Oeste 24 Oeste 0 -- -- 37
2019-08-06 09:00:00 23.9 10 Sudoeste 17 Sudoeste 0 -- -- 52
2019-08-06 08:00:00 20.2 18 Sudoeste 26 Sudoeste 0 -- -- 68
2019-08-06 07:00:00 17.3 22 Sudoeste 27 Sudoeste 0 -- -- 82
2019-08-06 06:00:00 17.8 23 Sudoeste 27 Sudoeste 0 -- -- 80
2019-08-06 05:00:00 18.3 25 Sudoeste 28 Sudoeste 0 -- -- 79
2019-08-06 04:00:00 18.5 23 Sudoeste 26 Sudoeste 0 -- -- 68
2019-08-06 03:00:00 19.2 22 Sudoeste 24 Sudoeste 0 -- -- 64
2019-08-06 02:00:00 21.2 18 Sudoeste 26 Sudoeste 0 -- -- 61
2019-08-06 01:00:00 20.1 19 Sudoeste 21 Sudoeste 0 -- -- 68
2019-08-06 00:00:00 20.8 0 Calma 10 Sur 0 -- -- 66
2019-08-05 23:00:00 21.6 6 Sur 10 Sur 0 -- -- 61
2019-08-05 22:00:00 22.8 7 Sur 14 Sudeste 0 -- -- 56
2019-08-05 21:00:00 25.7 9 Este 25 Sudeste 0 -- -- 49
2019-08-05 20:00:00 27.2 16 Este 28 Este 0 -- -- 45
2019-08-05 19:00:00 28.5 15 Este 29 Este 0 -- -- 44
2019-08-05 18:00:00 29.1 15 Este 32 Este 0 -- -- 37
2019-08-05 17:00:00 29.7 17 Este 35 Este 0 -- -- 34
2019-08-05 16:00:00 29.5 15 Este 29 Nordeste 0 -- -- 39
2019-08-05 15:00:00 29.2 13 Este 22 Sudeste 0 -- -- 42
2019-08-05 14:00:00 28.6 9 Nordeste 25 Sur 0 -- -- 41
2019-08-05 13:00:00 28 10 Este 18 Nordeste 0 -- -- 44
2019-08-05 12:00:00 29.9 6 Noroeste 18 Norte 0 -- -- 28
2019-08-05 11:00:00 28.1 6 Nordeste 15 Nordeste 0 -- -- 34
2019-08-05 10:00:00 26.3 4 Nordeste 8 Norte 0 -- -- 40
2019-08-05 09:00:00 24.1 3 Norte 13 Sudoeste 0 -- -- 54
2019-08-05 08:00:00 20.1 2 Sudeste 14 Sudoeste 0 -- -- 63
2019-08-05 07:00:00 18.2 8 Sur 26 Sudoeste 0 -- -- 72
2019-08-05 06:00:00 18.1 19 Sudoeste 27 Sudoeste 0 -- -- 72
2019-08-05 05:00:00 18.2 22 Sudoeste 26 Sudoeste 0 -- -- 70
2019-08-05 04:00:00 18.3 19 Sudoeste 24 Sudoeste 0 -- -- 66
2019-08-05 03:00:00 19.1 4 Este 15 Sudoeste 0 -- -- 62
2019-08-05 02:00:00 19.4 3 Este 18 Sudoeste 0 -- -- 69
2019-08-05 01:00:00 20.9 7 Oeste 19 Sudoeste 0 -- -- 68
2019-08-05 00:00:00 20.9 5 Sudoeste 13 Sudoeste 0 -- -- 69
2019-08-04 23:00:00 21.4 4 Sudeste 8 Sur 0 -- -- 67
2019-08-04 22:00:00 22.6 6 Sur 14 Este 0 -- -- 63
2019-08-04 21:00:00 25.8 10 Este 20 Este 0 -- -- 46
2019-08-04 20:00:00 26.9 13 Este 27 Este 0 -- -- 40
2019-08-04 19:00:00 28.5 14 Este 27 Este 0 -- -- 39
2019-08-04 18:00:00 28.9 18 Este 30 Este 0 -- -- 38
2019-08-04 17:00:00 29 16 Este 33 Nordeste 0 -- -- 40
2019-08-04 16:00:00 29.6 14 Este 28 Sudoeste 0 -- -- 39
2019-08-04 15:00:00 32 9 Sudoeste 27 Noroeste 0 -- -- 24
2019-08-04 14:00:00 31.4 9 Oeste 27 Oeste 0 -- -- 25
2019-08-04 13:00:00 30.9 9 Noroeste 19 Oeste 0 -- -- 28
2019-08-04 12:00:00 29.8 7 Oeste 21 Sudoeste 0 -- -- 30
2019-08-04 11:00:00 27.9 6 Nordeste 13 Noroeste 0 -- -- 39
2019-08-04 10:00:00 26.1 4 Norte 9 Norte 0 -- -- 43
2019-08-04 09:00:00 24.9 2 Este 19 Sudoeste 0 -- -- 52
2019-08-04 08:00:00 19.5 18 Sudoeste 27 Sudoeste 0 -- -- 73
2019-08-04 07:00:00 17.5 24 Sudoeste 29 Sudoeste 0 -- -- 78
2019-08-04 06:00:00 18.1 27 Sudoeste 31 Sudoeste 0 -- -- 77
2019-08-04 05:00:00 18 25 Sudoeste 30 Sudoeste 0 -- -- 77
2019-08-04 04:00:00 18.3 27 Sudoeste 30 Sudoeste 0 -- -- 75
2019-08-04 03:00:00 19.2 26 Sudoeste 33 Sudoeste 0 -- -- 72
2019-08-04 02:00:00 19.4 26 Sudoeste 31 Sudoeste 0 -- -- 67
2019-08-04 01:00:00 19.6 23 Sudoeste 27 Sudoeste 0 -- -- 67
2019-08-04 00:00:00 20.7 20 Sudoeste 23 Sudoeste 0 -- -- 64
2019-08-03 23:00:00 21.4 3 Nordeste 17 Sur 0 -- -- 64
2019-08-03 22:00:00 22.6 6 Sur 14 Sudeste 0 -- -- 61
2019-08-03 21:00:00 25.4 8 Este 21 Este 0 -- -- 50
2019-08-03 20:00:00 27.2 10 Este 20 Este 0 -- -- 42
2019-08-03 19:00:00 28.3 12 Este 28 Este 0 -- -- 41
2019-08-03 18:00:00 28.5 18 Nordeste 33 Nordeste 0 -- -- 39
2019-08-03 17:00:00 28.9 15 Este 33 Este 0 -- -- 37
2019-08-03 16:00:00 27.8 17 Nordeste 28 Nordeste 0 -- -- 38
2019-08-03 15:00:00 27 17 Nordeste 27 Nordeste 0 -- -- 41
2019-08-03 14:00:00 26.7 12 Este 28 Nordeste 0 -- -- 40
2019-08-03 13:00:00 28.7 14 Este 27 Sudeste 0 -- -- 36
2019-08-03 12:00:00 28.3 9 Sur 20 Sur 0 -- -- 40
2019-08-03 11:00:00 27.1 6 Sur 19 Sudoeste 0 -- -- 43
2019-08-03 10:00:00 25.3 5 Sudoeste 19 Sudoeste 0 -- -- 46
2019-08-03 09:00:00 23.3 8 Sur 14 Sur 0 -- -- 48
2019-08-03 08:00:00 19 5 Sur 10 Sur 0 -- -- 50
2019-08-03 07:00:00 16.6 3 Sudeste 11 Sudeste 0 -- -- 52
2019-08-03 06:00:00 17 0 Calma 9 Sur 0 -- -- 53
2019-08-03 05:00:00 17.5 6 Sur 11 Sur 0 -- -- 53
2019-08-03 04:00:00 17.4 8 Sur 10 Sur 0 -- -- 49
2019-08-03 03:00:00 16.6 4 Sur 8 Sur 0 -- -- 55
2019-08-03 02:00:00 17.5 9 Sur 10 Sur 0 -- -- 54
2019-08-03 01:00:00 18.9 4 Sur 10 Nordeste 0 -- -- 51
2019-08-03 00:00:00 20.3 3 Sur 9 Sudeste 0 -- -- 50
2019-08-02 23:00:00 20.2 4 Sudeste 8 Sudeste 0 -- -- 55
2019-08-02 22:00:00 20.6 6 Sudeste 14 Este 0 -- -- 55
2019-08-02 21:00:00 23.5 8 Este 22 Nordeste 0 -- -- 46
2019-08-02 20:00:00 24.8 16 Nordeste 26 Este 0 -- -- 44
2019-08-02 19:00:00 26 18 Nordeste 33 Nordeste 0 -- -- 42
2019-08-02 18:00:00 26.7 16 Este 27 Nordeste 0 -- -- 42
2019-08-02 17:00:00 26.6 14 Nordeste 30 Este 0 -- -- 43
2019-08-02 16:00:00 27 8 Nordeste 24 Nordeste 0 -- -- 46
2019-08-02 15:00:00 26 14 Nordeste 23 Este 0 -- -- 48
2019-08-02 14:00:00 25.9 13 Este 23 Este 0 -- -- 50
2019-08-02 13:00:00 25 10 Nordeste 20 Nordeste 0 -- -- 53
2019-08-02 12:00:00 25 7 Este 14 Sudeste 0 -- -- 53
2019-08-02 11:00:00 23.3 5 Este 12 Sudeste 0 -- -- 58
2019-08-02 10:00:00 21.6 4 Sudeste 8 Este 0 -- -- 66
2019-08-02 09:00:00 19.4 3 Nordeste 6 Este 0 -- -- 74
2019-08-02 08:00:00 17 0 Calma 5 Sudoeste 0 -- -- 83
2019-08-02 07:00:00 14.3 2 Sudoeste 4 Sur 0 -- -- 90
2019-08-02 06:00:00 14.8 3 Oeste 5 Oeste 0 -- -- 90
2019-08-02 05:00:00 13.6 4 Noroeste 10 Noroeste 0 -- -- 95
2019-08-02 04:00:00 14.7 3 Oeste 6 Este 0 -- -- 93
2019-08-02 03:00:00 15.4 3 Oeste 12 Oeste 0 -- -- 90
2019-08-02 02:00:00 15.7 2 Sudeste 12 Norte 0 -- -- 89
2019-08-02 01:00:00 16.7 2 Nordeste 14 Noroeste 0 -- -- 86
2019-08-02 00:00:00 18.1 10 Noroeste 18 Norte 0 -- -- 80
2019-08-01 23:00:00 19.7 6 Norte 20 Nordeste 0 -- -- 62
2019-08-01 22:00:00 21 2 Noroeste 9 Este 0 -- -- 53
2019-08-01 21:00:00 23.3 7 Este 19 Este 0 -- -- 50
2019-08-01 20:00:00 24.6 14 Este 24 Este 0 -- -- 48
2019-08-01 19:00:00 26.1 14 Este 25 Este 0 -- -- 47
2019-08-01 18:00:00 25.5 15 Este 26 Este 0 -- -- 49
2019-08-01 17:00:00 26.2 14 Este 26 Sudeste 0 -- -- 48
2019-08-01 16:00:00 27.3 8 Este 22 Este 0 -- -- 46
2019-08-01 15:00:00 26.2 11 Este 27 Este 0 -- -- 54
2019-08-01 14:00:00 25.3 9 Este 24 Este 0 -- -- 53
2019-08-01 13:00:00 24.4 14 Este 31 Este 0 -- -- 54
2019-08-01 12:00:00 25.2 8 Este 17 Sur 0 -- -- 46
2019-08-01 11:00:00 22.9 7 Sudoeste 27 Sudoeste 0 -- -- 46
2019-08-01 10:00:00 21 13 Sudoeste 39 Sudoeste 0 -- -- 55
2019-08-01 09:00:00 18.3 28 Sudoeste 44 Sudoeste 0 -- -- 66
2019-08-01 08:00:00 16.1 33 Sudoeste 41 Sudoeste 0 -- -- 76
2019-08-01 07:00:00 14.6 19 Sudoeste 28 Sudoeste 0 -- -- 82
2019-08-01 06:00:00 14.1 15 Sudoeste 24 Sudoeste 0 -- -- 84
2019-08-01 05:00:00 15.3 6 Sur 18 Sudoeste 0 -- -- 84
2019-08-01 04:00:00 15.3 5 Este 11 Sudeste 0 -- -- 89
2019-08-01 03:00:00 16.1 6 Sudeste 13 Sudeste 0 -- -- 86
2019-08-01 02:00:00 18.3 8 Sudeste 14 Sur 0 -- -- 78
2019-08-01 01:00:00 17.3 8 Sudeste 11 Sudeste 0 -- -- 83
2019-08-01 00:00:00 17.3 2 Sudeste 23 Sur 0 -- -- 83
2019-07-31 23:00:00 17.9 11 Sur 20 Sudoeste 0 -- -- 81
2019-07-31 22:00:00 18.3 15 Sudoeste 20 Sudoeste 0 -- -- 80
2019-07-31 21:00:00 21.1 5 Este 24 Nordeste 0 -- -- 68
2019-07-31 20:00:00 23.1 17 Este 30 Este 0 -- -- 56
2019-07-31 19:00:00 23.6 17 Este 31 Este 0 -- -- 50
2019-07-31 18:00:00 24 17 Este 31 Este 0 -- -- 46
2019-07-31 17:00:00 24.6 17 Este 30 Este 0 -- -- 45
2019-07-31 16:00:00 24.2 15 Este 32 Este 0 -- -- 43
2019-07-31 15:00:00 23.9 18 Este 31 Sudeste 0 -- -- 43
2019-07-31 14:00:00 23.3 16 Este 29 Este 0 -- -- 47
2019-07-31 13:00:00 21.8 12 Sudeste 23 Sudeste 0 -- -- 50
2019-07-31 12:00:00 19.6 13 Este 23 Sudeste 0 -- -- 51
2019-07-31 11:00:00 17.9 12 Este 21 Sudeste 0 -- -- 55
2019-07-31 10:00:00 17.2 9 Este 17 Este 0 -- -- 56
2019-07-31 09:00:00 15.5 8 Sudeste 13 Sudeste 0 -- -- 58
2019-07-31 08:00:00 12.9 3 Sudeste 7 Sudeste 0 -- -- 68
2019-07-31 07:00:00 9.4 0 Calma 7 Noroeste 0 -- -- 77
2019-07-31 06:00:00 9.8 5 Noroeste 11 Noroeste 0 -- -- 75
2019-07-31 05:00:00 9.8 5 Oeste 14 Noroeste 0 -- -- 77
2019-07-31 04:00:00 9.7 6 Noroeste 10 Noroeste 0 -- -- 78
2019-07-31 03:00:00 10.1 4 Noroeste 10 Noroeste 0 -- -- 77
2019-07-31 02:00:00 11.1 8 Noroeste 13 Noroeste 0 -- -- 72
2019-07-31 01:00:00 11.1 8 Noroeste 19 Noroeste 0 -- -- 73
2019-07-31 00:00:00 11.5 12 Noroeste 21 Noroeste 0 -- -- 71
2019-07-30 23:00:00 12.7 13 Noroeste 20 Noroeste 0 -- -- 67
2019-07-30 22:00:00 14.2 13 Norte 27 Norte 0 -- -- 63
2019-07-30 21:00:00 16 13 Norte 26 Norte 0 -- -- 57
2019-07-30 20:00:00 18 18 Nordeste 28 Nordeste 0 -- -- 52
2019-07-30 19:00:00 19.4 17 Nordeste 29 Nordeste 0 -- -- 48
2019-07-30 18:00:00 20.7 17 Norte 27 Nordeste 0 -- -- 47
2019-07-30 17:00:00 21.6 14 Este 30 Nordeste 0 -- -- 49
2019-07-30 16:00:00 21.9 9 Noroeste 22 Norte 0 -- -- 49
2019-07-30 15:00:00 20.8 11 Norte 22 Nordeste 0 -- -- 53
2019-07-30 14:00:00 20.8 10 Nordeste 18 Norte 0 -- -- 54
2019-07-30 13:00:00 19.3 10 Norte 24 Norte 0 -- -- 58
2019-07-30 12:00:00 17.8 8 Nordeste 18 Noroeste 0 -- -- 62
2019-07-30 11:00:00 16.5 5 Norte 23 Norte 0 -- -- 70
2019-07-30 10:00:00 14.2 14 Norte 23 Norte 0 -- -- 79
2019-07-30 09:00:00 11.8 11 Noroeste 18 Norte 0 -- -- 91
2019-07-30 08:00:00 11 12 Norte 17 Norte 0 -- -- 96
2019-07-30 07:00:00 10.7 2 Oeste 10 Noroeste 0 -- -- 97
2019-07-30 06:00:00 10.1 4 Noroeste 10 Noroeste 0 -- -- 97
2019-07-30 05:00:00 9.9 2 Sur 6 Norte 0 -- -- 95
2019-07-30 04:00:00 11.7 3 Oeste 5 Noroeste 0 -- -- 89
2019-07-30 03:00:00 13.2 2 Sur 6 Noroeste 0 -- -- 87
2019-07-30 02:00:00 13.6 4 Noroeste 12 Noroeste 0 -- -- 85
2019-07-30 01:00:00 15.1 3 Nordeste 19 Noroeste 0 -- -- 78
2019-07-30 00:00:00 16.8 13 Noroeste 31 Noroeste 0 -- -- 70
2019-07-29 23:00:00 21.9 15 Oeste 24 Oeste 0 -- -- 37
2019-07-29 22:00:00 22.4 4 Sur 10 Oeste 0 -- -- 40
2019-07-29 21:00:00 23.7 4 Sur 12 Sudeste 0 -- -- 44
2019-07-29 20:00:00 25.3 4 Sur 26 Este 0 -- -- 39
2019-07-29 19:00:00 25.7 7 Este 19 Este 0 -- -- 37
2019-07-29 18:00:00 26.4 6 Este 19 Este 0 -- -- 37
2019-07-29 17:00:00 27.3 9 Norte 23 Noroeste 0 -- -- 34
2019-07-29 16:00:00 27.1 10 Noroeste 27 Sudoeste 0 -- -- 35
2019-07-29 15:00:00 27.7 9 Noroeste 27 Oeste 0 -- -- 36
2019-07-29 14:00:00 25.2 8 Noroeste 29 Oeste 0 -- -- 37
2019-07-29 13:00:00 26.2 13 Oeste 30 Sudoeste 0 -- -- 39
2019-07-29 12:00:00 25.3 7 Sudoeste 26 Oeste 0 -- -- 42
2019-07-29 11:00:00 23.5 14 Sudoeste 22 Oeste 0 -- -- 40
2019-07-29 10:00:00 22.1 15 Sudoeste 25 Sudoeste 0 -- -- 42
2019-07-29 09:00:00 20.1 17 Sudoeste 24 Sudoeste 0 -- -- 46
2019-07-29 08:00:00 16.5 18 Sudoeste 29 Sudoeste 0 -- -- 61
2019-07-29 07:00:00 13.6 24 Sudoeste 28 Sudoeste 0 -- -- 72
2019-07-29 06:00:00 13.3 22 Sudoeste 27 Sudoeste 0 -- -- 73
2019-07-29 05:00:00 14.3 15 Sudoeste 23 Sudoeste 0 -- -- 65
2019-07-29 04:00:00 14.2 18 Sudoeste 24 Sudoeste 0 -- -- 70
2019-07-29 03:00:00 14.3 9 Sur 17 Sur 0 -- -- 67
2019-07-29 02:00:00 13.3 4 Sudeste 11 Sur 0 -- -- 72
2019-07-29 01:00:00 13.1 5 Sudeste 10 Sudeste 0 -- -- 76
2019-07-29 00:00:00 13.7 6 Sur 10 Sudeste 0 -- -- 73
2019-07-28 23:00:00 14.7 8 Sudeste 13 Sudeste 0 -- -- 69
2019-07-28 22:00:00 16.8 5 Este 14 Nordeste 0 -- -- 59
2019-07-28 21:00:00 18.4 6 Nordeste 18 Nordeste 0 -- -- 54
2019-07-28 20:00:00 21.1 8 Nordeste 14 Noroeste 0 -- -- 44
2019-07-28 19:00:00 22.7 9 Noroeste 21 Noroeste 0 -- -- 35
2019-07-28 18:00:00 22.3 14 Noroeste 27 Noroeste 0 -- -- 38
2019-07-28 17:00:00 21.5 13 Norte 25 Noroeste 0 -- -- 45
2019-07-28 16:00:00 20.7 15 Norte 25 Noroeste 0 -- -- 47
2019-07-28 15:00:00 20 17 Noroeste 26 Norte 0 -- -- 47
2019-07-28 14:00:00 19.2 13 Noroeste 26 Noroeste 0 -- -- 52
2019-07-28 13:00:00 17.5 12 Noroeste 29 Oeste 0 -- -- 59
2019-07-28 12:00:00 16.3 18 Norte 32 Noroeste 0 -- -- 67
2019-07-28 11:00:00 14.8 21 Norte 33 Norte 0 -- -- 69
2019-07-28 10:00:00 13.1 19 Norte 30 Noroeste 0 -- -- 77
2019-07-28 09:00:00 12.1 15 Noroeste 24 Noroeste 0 -- -- 79
2019-07-28 08:00:00 10.6 17 Noroeste 32 Noroeste 0 -- -- 85
2019-07-28 07:00:00 8.7 21 Noroeste 31 Noroeste 0 -- -- 92
2019-07-28 06:00:00 8.5 14 Noroeste 29 Noroeste 0 -- -- 93
2019-07-28 05:00:00 9.1 18 Noroeste 33 Noroeste 0 -- -- 88
2019-07-28 04:00:00 9.2 16 Noroeste 32 Noroeste 0 -- -- 90
2019-07-28 03:00:00 9.5 19 Noroeste 33 Noroeste 0 -- -- 91
2019-07-28 02:00:00 9.9 18 Noroeste 37 Noroeste 0 -- -- 92
2019-07-28 01:00:00 10.4 21 Noroeste 33 Noroeste 0 -- -- 90
2019-07-28 00:00:00 10.7 23 Noroeste 40 Noroeste 0 -- -- 90
2019-07-27 23:00:00 11.3 23 Norte 37 Norte 0 -- -- 91
2019-07-26 12:00:00 23.1 4 Sudeste 20 Norte 0 -- -- 60
2019-07-26 11:00:00 20.2 8 Este 14 Sudoeste 0 -- -- 67
2019-07-26 10:00:00 20.6 8 Sudeste 14 Sudeste 0 -- -- 69
2019-07-26 09:00:00 19 6 Sur 18 Sudoeste 0 -- -- 59
2019-07-26 08:00:00 19.2 9 Sur 19 Sudoeste 0 -- -- 56
2019-07-26 07:00:00 17.7 6 Este 22 Sudoeste 0 -- -- 58
2019-07-26 06:00:00 19.1 17 Sudoeste 26 Sudoeste 0 -- -- 53
2019-07-26 05:00:00 18.8 16 Sudoeste 27 Sudoeste 0 -- -- 55
2019-07-26 04:00:00 19.6 18 Sudoeste 28 Sudoeste 0 -- -- 55
2019-07-26 03:00:00 19.5 19 Sudoeste 27 Sudoeste 0 -- -- 61
2019-07-26 02:00:00 20 16 Sudoeste 26 Sudoeste 0 -- -- 60
2019-07-26 01:00:00 21.3 16 Sur 31 Sur 0 -- -- 57
2019-07-26 00:00:00 21.7 15 Sur 24 Sur 0 -- -- 56
2019-07-25 23:00:00 21.3 19 Sur 30 Sur 0.2 -- -- 59
2019-07-25 22:00:00 21.8 19 Sur 24 Sur 0 -- -- 55
2019-07-25 21:00:00 21.1 19 Sudoeste 37 Sur 0 -- -- 58
2019-07-25 20:00:00 22.6 17 Sur 34 Sudeste 0 -- -- 55
2019-07-25 19:00:00 23.4 17 Sudeste 39 Sudeste 1 -- -- 54
2019-07-25 18:00:00 26.1 17 Este 27 Este 0 -- -- 42
2019-07-25 17:00:00 26 10 Este 25 Sudoeste 0 -- -- 45
2019-07-25 16:00:00 25.6 5 Sudoeste 25 Sudoeste 0 -- -- 53
2019-07-25 15:00:00 17.3 15 Oeste 59 Oeste 5.2 -- -- 82
2019-07-25 14:00:00 31.8 9 Sudeste 22 Este 0 -- -- 29
2019-07-25 13:00:00 31.1 11 Noroeste 24 Sudoeste 0 -- -- 32
2019-07-25 12:00:00 30.5 5 Sur 23 Sudoeste 0 -- -- 32
2019-07-25 11:00:00 28 8 Sur 27 Sudoeste 0 -- -- 33
2019-07-25 10:00:00 25.3 26 Sudoeste 42 Sudoeste 0 -- -- 37
2019-07-25 09:00:00 23 31 Sudoeste 41 Sudoeste 0 -- -- 40
2019-07-25 08:00:00 20.8 24 Sudoeste 31 Sudoeste 0 -- -- 43
2019-07-25 07:00:00 19.7 21 Sudoeste 28 Sudoeste 0 -- -- 43
2019-07-25 06:00:00 20.2 19 Sudoeste 29 Sudoeste 0 -- -- 44
2019-07-25 05:00:00 20.6 20 Sudoeste 30 Sudoeste 0 -- -- 44
2019-07-25 04:00:00 20.9 23 Sudoeste 33 Sudoeste 0 -- -- 44
2019-07-25 03:00:00 20.3 23 Sudoeste 33 Sudoeste 0 -- -- 44
2019-07-25 02:00:00 21.1 25 Sudoeste 35 Sudoeste 0 -- -- 43
2019-07-25 01:00:00 22.6 26 Sudoeste 36 Sur 0 -- -- 40
2019-07-25 00:00:00 23.3 20 Sudoeste 30 Sur 0 -- -- 39
2019-07-24 23:00:00 24.4 19 Sur 28 Sudoeste 0 -- -- 37
2019-07-24 22:00:00 24.2 16 Sur 23 Sur 0 -- -- 38
2019-07-24 21:00:00 25.9 12 Sur 22 Sudoeste 0 -- -- 33
2019-07-24 20:00:00 27.2 7 Noroeste 20 Oeste 0 -- -- 33
2019-07-24 19:00:00 29.1 5 Sudeste 25 Este 0 -- -- 31
2019-07-24 18:00:00 29.3 13 Sudeste 28 Sudeste 0 -- -- 29
2019-07-24 17:00:00 31 15 Sudeste 37 Sur 0 -- -- 27
2019-07-24 16:00:00 32.4 14 Sur 37 Sur 0 -- -- 25
2019-07-24 15:00:00 31.5 12 Sur 28 Sudeste 0 -- -- 24
2019-07-24 14:00:00 29.3 13 Sudoeste 25 Sur 0 -- -- 28
2019-07-24 13:00:00 30.4 10 Sur 26 Sur 0 -- -- 27
2019-07-24 12:00:00 28.9 19 Sudoeste 28 Sur 0 -- -- 31
2019-07-24 11:00:00 24.7 8 Oeste 26 Sudoeste 0 -- -- 46
2019-07-24 10:00:00 27.1 14 Sur 26 Sur 0 -- -- 36
2019-07-24 09:00:00 24.7 19 Sur 26 Sur 0 -- -- 40
2019-07-24 08:00:00 19.5 3 Nordeste 13 Sur 0 -- -- 54
2019-07-24 07:00:00 18.4 2 Sudeste 6 Sudeste 0 -- -- 52
2019-07-24 06:00:00 17.9 2 Sur 12 Oeste 0 -- -- 54
2019-07-24 05:00:00 18.1 4 Sudeste 14 Sudoeste 0 -- -- 54
2019-07-24 04:00:00 19.9 6 Sudoeste 18 Sudoeste 0 -- -- 48
2019-07-24 03:00:00 21.1 17 Sudoeste 31 Sudoeste 0 -- -- 44
2019-07-24 02:00:00 21.6 19 Sudoeste 26 Sudoeste 0 -- -- 42
2019-07-24 01:00:00 21.6 15 Sudoeste 28 Sudoeste 0 -- -- 42
2019-07-24 00:00:00 22 19 Sudoeste 31 Sur 0 -- -- 41
2019-07-23 23:00:00 24.3 20 Sur 29 Sur 0 -- -- 35
2019-07-23 22:00:00 24.8 17 Sur 23 Sur 0 -- -- 34
2019-07-23 21:00:00 26.7 16 Sur 29 Sur 0 -- -- 29
2019-07-23 20:00:00 28.7 14 Sur 27 Sur 0 -- -- 27
2019-07-23 19:00:00 29.4 13 Sur 30 Sur 0 -- -- 27
2019-07-23 18:00:00 30.8 8 Sudeste 32 Sudoeste 0 -- -- 25
2019-07-23 17:00:00 30.7 9 Sur 30 Sudeste 0 -- -- 25
2019-07-23 16:00:00 32.4 15 Sudoeste 30 Sudoeste 0 -- -- 25
2019-07-23 15:00:00 32.7 13 Sur 37 Sur 0 -- -- 24
2019-07-23 14:00:00 31.6 18 Sur 33 Sur 0 -- -- 25
2019-07-23 13:00:00 30.5 17 Sur 30 Sudoeste 0 -- -- 29
2019-07-23 12:00:00 28.7 14 Sur 27 Sur 0 -- -- 30
2019-07-23 11:00:00 27.6 11 Sur 20 Sur 0 -- -- 31
2019-07-23 10:00:00 25.9 8 Sudoeste 14 Sudoeste 0 -- -- 35
2019-07-23 09:00:00 21.6 4 Noroeste 21 Sudoeste 0 -- -- 44
2019-07-23 08:00:00 21.4 15 Sudoeste 30 Sudoeste 0 -- -- 38
2019-07-23 07:00:00 21.5 21 Sudoeste 33 Sudoeste 0 -- -- 35
2019-07-23 06:00:00 21.4 21 Sudoeste 32 Sudoeste 0 -- -- 35
2019-07-23 05:00:00 21.6 22 Sudoeste 30 Sudoeste 0 -- -- 34
2019-07-23 04:00:00 21.4 22 Sudoeste 30 Sudoeste 0 -- -- 35
2019-07-23 03:00:00 21.8 22 Sudoeste 35 Sudoeste 0 -- -- 33
2019-07-23 02:00:00 20.8 18 Sudoeste 28 Sur 0 -- -- 34
2019-07-23 01:00:00 22 13 Sudoeste 26 Sudoeste 0 -- -- 38
2019-07-23 00:00:00 22 20 Sudoeste 31 Sudoeste 0 -- -- 40
2019-07-22 23:00:00 22.9 19 Sudoeste 29 Sudoeste 0 -- -- 40
2019-07-22 22:00:00 24 17 Sudoeste 25 Sudoeste 0 -- -- 38
2019-07-22 21:00:00 25.6 13 Sudoeste 28 Sudoeste 0 -- -- 35
2019-07-22 20:00:00 28.6 18 Sur 30 Sur 0 -- -- 30
2019-07-22 19:00:00 30.6 13 Sur 30 Sur 0 -- -- 26
2019-07-22 18:00:00 31.2 17 Sur 38 Sur 0 -- -- 26
2019-07-22 17:00:00 31.3 15 Sur 36 Sur 0 -- -- 25
2019-07-22 16:00:00 30.7 14 Sur 32 Sur 0 -- -- 25
2019-07-22 15:00:00 31.4 17 Sur 37 Sur 0 -- -- 22
2019-07-22 14:00:00 31.3 19 Sur 44 Sur 0 -- -- 20
2019-07-22 13:00:00 30.8 12 Sudeste 28 Sudeste 0 -- -- 28
2019-07-22 12:00:00 29.7 12 Sudeste 24 Sudeste 0 -- -- 29
2019-07-22 11:00:00 27.5 14 Sudeste 26 Sudeste 0 -- -- 30
2019-07-22 10:00:00 25.8 12 Sudeste 19 Sudeste 0 -- -- 33
2019-07-22 09:00:00 23.5 12 Sur 19 Sur 0 -- -- 34
2019-07-22 08:00:00 20.5 6 Sudoeste 26 Sudoeste 0 -- -- 38
2019-07-22 07:00:00 18 23 Sudoeste 28 Sudoeste 0 -- -- 40
2019-07-22 06:00:00 19.1 25 Sudoeste 30 Sudoeste 0 -- -- 38
2019-07-22 05:00:00 19.9 22 Sudoeste 31 Sudoeste 0 -- -- 36
2019-07-22 04:00:00 19.9 22 Sudoeste 35 Sudoeste 0 -- -- 39
2019-07-22 03:00:00 20.4 26 Sudoeste 35 Sudoeste 0 -- -- 38
2019-07-22 02:00:00 21.3 26 Sudoeste 36 Sudoeste 0 -- -- 40
2019-07-22 01:00:00 21.3 28 Sudoeste 40 Sudoeste 0 -- -- 38
2019-07-22 00:00:00 21.5 29 Sudoeste 36 Sudoeste 0 -- -- 46
2019-07-21 23:00:00 22.9 26 Sudoeste 35 Sudoeste 0 -- -- 43
2019-07-21 22:00:00 23.7 23 Sudoeste 32 Sur 0 -- -- 44
2019-07-21 21:00:00 24.6 12 Sudoeste 18 Sudoeste 0 -- -- 50
2019-07-21 20:00:00 27 5 Nordeste 23 Nordeste 0 -- -- 46
2019-07-21 19:00:00 28.1 9 Este 25 Sudeste 0 -- -- 43
2019-07-21 18:00:00 30.1 16 Este 27 Este 0 -- -- 37
2019-07-21 17:00:00 29.9 16 Sudeste 27 Sudeste 0 -- -- 38
2019-07-21 16:00:00 29.8 13 Sudeste 28 Sudeste 0 -- -- 41
2019-07-21 15:00:00 29.2 16 Este 28 Este 0 -- -- 44
2019-07-21 14:00:00 28.3 15 Este 26 Este 0 -- -- 47
2019-07-21 13:00:00 28.7 12 Sudeste 28 Sudeste 0 -- -- 43
2019-07-21 12:00:00 27.6 10 Sur 22 Sur 0 -- -- 41
2019-07-21 11:00:00 25.7 9 Sudeste 18 Sudeste 0 -- -- 49
2019-07-21 10:00:00 23.2 12 Sudeste 17 Sudeste 0 -- -- 53
2019-07-21 09:00:00 22.1 4 Este 9 Sudeste 0 -- -- 55
2019-07-21 08:00:00 18.6 6 Sudoeste 19 Sudoeste 0 -- -- 59
2019-07-21 07:00:00 17.9 16 Sudoeste 28 Sudoeste 0 -- -- 57
2019-07-21 06:00:00 18.4 17 Sudoeste 27 Sudoeste 0 -- -- 54
2019-07-21 05:00:00 19 22 Sudoeste 29 Sudoeste 0 -- -- 52
2019-07-21 04:00:00 18.7 10 Sudoeste 26 Sudoeste 0 -- -- 54
2019-07-21 03:00:00 19.2 4 Norte 27 Sudoeste 0 -- -- 56
2019-07-21 02:00:00 20.7 8 Este 44 Sudoeste 0 -- -- 52
2019-07-21 01:00:00 21 27 Sudoeste 39 Sudoeste 0 -- -- 54
2019-07-21 00:00:00 21.8 23 Sudoeste 37 Sudoeste 0 -- -- 55
2019-07-20 23:00:00 22.7 24 Sudoeste 35 Sudoeste 0 -- -- 53
2019-07-20 22:00:00 23.5 24 Sur 37 Sur 0 -- -- 51
2019-07-20 21:00:00 23.8 14 Sur 20 Sur 0 -- -- 55
2019-07-20 20:00:00 27 6 Sudeste 18 Sudeste 0 -- -- 48
2019-07-20 19:00:00 27.6 10 Sudeste 23 Sudeste 0 -- -- 48
2019-07-20 18:00:00 28.2 12 Este 23 Este 0 -- -- 41
2019-07-20 17:00:00 28.1 15 Sudeste 32 Sudeste 0 -- -- 42
2019-07-20 16:00:00 30.2 6 Sur 24 Sudoeste 0 -- -- 32
2019-07-20 15:00:00 30.1 13 Sudoeste 30 Sur 0 -- -- 32
2019-07-20 14:00:00 30.7 15 Sudoeste 37 Sudoeste 0 -- -- 30
2019-07-20 13:00:00 30 19 Sudoeste 33 Sudoeste 0 -- -- 31
2019-07-20 12:00:00 28.2 17 Sudoeste 33 Sudoeste 0 -- -- 34
2019-07-20 11:00:00 25.8 24 Sudoeste 41 Sudoeste 0 -- -- 39
2019-07-20 10:00:00 23.5 26 Sudoeste 41 Sudoeste 0 -- -- 44
2019-07-20 09:00:00 21.2 27 Sudoeste 42 Sudoeste 0 -- -- 50
2019-07-20 08:00:00 18.8 28 Sudoeste 37 Sudoeste 0 -- -- 55
2019-07-20 07:00:00 18.4 28 Sudoeste 41 Sudoeste 0 -- -- 59
2019-07-20 06:00:00 18.8 29 Sudoeste 38 Sudoeste 0 -- -- 62
2019-07-20 05:00:00 19 27 Sudoeste 35 Sudoeste 0 -- -- 64
2019-07-20 04:00:00 19.2 27 Sudoeste 36 Sudoeste 0 -- -- 64
2019-07-20 03:00:00 19.1 23 Sudoeste 37 Sudoeste 0 -- -- 66
2019-07-20 02:00:00 19.4 22 Sudoeste 35 Sudoeste 0 -- -- 65
2019-07-20 01:00:00 19.6 21 Sudoeste 28 Sudoeste 0 -- -- 63
2019-07-20 00:00:00 20.3 13 Sudoeste 22 Sur 0 -- -- 59
2019-07-19 23:00:00 21.8 13 Sur 27 Sur 0 -- -- 54
2019-07-19 22:00:00 22.7 11 Sudeste 19 Sudeste 0 -- -- 53
2019-07-19 21:00:00 24.1 9 Sur 21 Sudeste 0 -- -- 60
2019-07-19 20:00:00 26 11 Sudeste 22 Sudeste 0 -- -- 56
2019-07-19 19:00:00 25.8 15 Sudeste 25 Este 0 -- -- 49
2019-07-19 18:00:00 26.8 15 Este 26 Este 0 -- -- 42
2019-07-19 17:00:00 26.6 14 Este 22 Este 0 -- -- 43
2019-07-19 16:00:00 26.4 14 Este 24 Este 0 -- -- 42
2019-07-19 15:00:00 25.6 15 Este 26 Nordeste 0 -- -- 45
2019-07-19 14:00:00 26.4 12 Este 22 Este 0 -- -- 44
2019-07-19 13:00:00 26.5 14 Este 23 Este 0 -- -- 47
2019-07-19 12:00:00 25.7 13 Sudeste 23 Sudeste 0 -- -- 50
2019-07-19 11:00:00 24 12 Sur 19 Sudoeste 0 -- -- 57
2019-07-19 10:00:00 21.3 11 Este 14 Este 0 -- -- 53
2019-07-19 09:00:00 19 8 Este 12 Este 0 -- -- 62
2019-07-19 08:00:00 17.1 4 Sur 9 Sur 0 -- -- 66
2019-07-19 07:00:00 15.1 3 Sur 10 Sur 0 -- -- 65
2019-07-19 06:00:00 15.4 8 Sur 9 Sur 0 -- -- 61
2019-07-19 05:00:00 14.4 3 Sudoeste 6 Sur 0 -- -- 70
2019-07-19 04:00:00 15.5 2 Oeste 6 Noroeste 0 -- -- 65
2019-07-19 03:00:00 15.8 5 Noroeste 10 Noroeste 0 -- -- 65
2019-07-19 02:00:00 16 4 Noroeste 10 Oeste 0 -- -- 65
2019-07-19 01:00:00 16 8 Noroeste 13 Noroeste 0 -- -- 67
2019-07-19 00:00:00 17.1 6 Noroeste 12 Noroeste 0 -- -- 59